Time;durP1;ratioP1;P1;durP2;ratioP2;P2;SDS_P1;SDS_P2;PMS_P1;PMS_P2;Temp;Humidity;BMP_temperature;BMP_pressure;BME280_temperature;BME280_humidity;BME280_pressure;Samples;Min_cycle;Max_cycle;Signal;HPM_P1;HPM_P2
2021/03/03 00:01:09;;;;;;;12.63;6.00;;;5.20;75.70;;;;;;5054375;28;20033;-74
2021/03/03 00:03:34;;;;;;;12.25;5.50;;;5.10;76.50;;;;;;5054172;28;20029;-74
2021/03/03 00:06:00;;;;;;;10.98;5.20;;;5.00;76.10;;;;;;5054053;28;20451;-75
2021/03/03 00:08:26;;;;;;;14.00;6.28;;;5.00;76.40;;;;;;5052117;28;20116;-74
2021/03/03 00:10:52;;;;;;;9.25;5.65;;;4.90;76.50;;;;;;5053785;28;20048;-75
2021/03/03 00:13:17;;;;;;;8.88;5.20;;;4.90;76.80;;;;;;5053986;28;20035;-75
2021/03/03 00:15:43;;;;;;;12.30;5.43;;;4.90;77.40;;;;;;5052863;28;20021;-75
2021/03/03 00:18:09;;;;;;;9.95;5.20;;;4.90;77.30;;;;;;5052725;28;20025;-75
2021/03/03 00:20:35;;;;;;;9.85;5.68;;;5.00;77.00;;;;;;5053516;28;20432;-74
2021/03/03 00:23:00;;;;;;;8.63;4.60;;;5.10;76.70;;;;;;5053978;28;20412;-74
2021/03/03 00:25:26;;;;;;;11.55;4.93;;;5.30;76.30;;;;;;5053729;28;20485;-74
2021/03/03 00:27:52;;;;;;;10.02;4.85;;;5.30;75.50;;;;;;5052513;28;20036;-75
2021/03/03 00:30:18;;;;;;;10.43;5.45;;;5.20;75.50;;;;;;5053752;28;20024;-75
2021/03/03 00:32:45;;;;;;;11.40;4.95;;;4.90;76.30;;;;;;5053634;28;20476;-74
2021/03/03 00:35:11;;;;;;;8.00;5.15;;;4.70;77.10;;;;;;5052308;28;20032;-75
2021/03/03 00:37:37;;;;;;;12.73;5.30;;;4.70;77.60;;;;;;5035592;28;20032;-74
2021/03/03 00:40:07;;;;;;;7.15;4.55;;;4.70;76.90;;;;;;5052328;28;20025;-75
2021/03/03 00:42:33;;;;;;;7.68;5.05;;;4.70;76.60;;;;;;5053562;28;20025;-74
2021/03/03 00:44:59;;;;;;;10.52;4.85;;;4.70;74.50;;;;;;5053455;28;20028;-74
2021/03/03 00:47:25;;;;;;;9.13;4.53;;;4.50;75.20;;;;;;5051975;28;20381;-75
2021/03/03 00:49:50;;;;;;;13.20;5.20;;;4.30;76.20;;;;;;5053190;28;20052;-75
2021/03/03 00:52:16;;;;;;;7.70;3.90;;;4.40;76.90;;;;;;5053363;28;20070;-74
2021/03/03 00:54:43;;;;;;;10.07;4.43;;;4.60;76.70;;;;;;5053221;28;20025;-75
2021/03/03 00:57:09;;;;;;;7.88;4.18;;;4.70;76.20;;;;;;5053188;28;20021;-72
2021/03/03 00:59:35;;;;;;;8.73;4.30;;;4.80;75.80;;;;;;5053012;28;20104;-75
2021/03/03 01:02:01;;;;;;;7.85;4.22;;;4.90;74.60;;;;;;5053153;28;20025;-74
2021/03/03 01:04:26;;;;;;;6.72;4.25;;;4.80;74.50;;;;;;5053127;28;20056;-75
2021/03/03 01:06:52;;;;;;;16.85;6.50;;;4.80;75.00;;;;;;5052980;28;20029;-75
2021/03/03 01:09:18;;;;;;;16.20;4.80;;;4.90;75.00;;;;;;5052890;28;20025;-75
2021/03/03 01:11:44;;;;;;;7.78;4.80;;;4.90;75.00;;;;;;5052996;28;20366;-75
2021/03/03 01:14:09;;;;;;;8.80;4.43;;;4.70;75.10;;;;;;5052855;28;20029;-73
2021/03/03 01:16:36;;;;;;;8.55;4.70;;;4.50;75.70;;;;;;5052691;28;20028;-74
2021/03/03 01:19:02;;;;;;;9.43;4.50;;;4.40;77.00;;;;;;5052722;28;20131;-75
2021/03/03 01:21:28;;;;;;;7.97;4.00;;;4.40;76.70;;;;;;5051103;28;20025;-74
2021/03/03 01:23:53;;;;;;;6.55;4.15;;;4.30;77.10;;;;;;5052749;28;20598;-74
2021/03/03 01:26:19;;;;;;;9.90;4.68;;;4.30;77.40;;;;;;5051322;28;20025;-74
2021/03/03 01:28:46;;;;;;;7.72;4.35;;;4.40;77.00;;;;;;5051377;28;20028;-74
2021/03/03 01:31:11;;;;;;;9.68;5.22;;;4.50;76.80;;;;;;5052553;28;20116;-75
2021/03/03 01:33:37;;;;;;;9.30;4.45;;;4.60;76.60;;;;;;5052533;28;20025;-75
2021/03/03 01:36:03;;;;;;;9.10;4.70;;;4.70;76.10;;;;;;5051058;28;20025;-74
2021/03/03 01:38:29;;;;;;;7.05;4.30;;;4.70;76.10;;;;;;5051287;28;20025;-74
2021/03/03 01:40:56;;;;;;;7.13;4.38;;;4.80;75.60;;;;;;5050976;28;20021;-75
2021/03/03 01:43:21;;;;;;;12.50;5.15;;;4.90;75.50;;;;;;5052454;28;20021;-75
2021/03/03 01:45:49;;;;;;;7.45;4.45;;;5.00;74.90;;;;;;5052167;28;20040;-75
2021/03/03 01:48:14;;;;;;;7.60;4.07;;;5.10;74.70;;;;;;5052340;28;20036;-75
2021/03/03 01:50:41;;;;;;;12.10;3.88;;;5.10;74.50;;;;;;5034270;28;20037;-74
2021/03/03 01:53:07;;;;;;;12.88;4.32;;;5.10;74.20;;;;;;5050969;28;20032;-74
2021/03/03 01:55:34;;;;;;;8.13;4.30;;;5.20;73.60;;;;;;5051962;28;20025;-75
2021/03/03 01:58:03;;;;;;;11.75;4.15;;;5.20;73.10;;;;;;5050112;28;20025;-75
2021/03/03 02:00:29;;;;;;;4.88;3.58;;;5.30;72.70;;;;;;5051725;28;20029;-74
2021/03/03 02:02:55;;;;;;;7.25;4.32;;;5.40;72.50;;;;;;5051017;28;20421;-75
2021/03/03 02:05:21;;;;;;;13.05;3.55;;;5.30;72.60;;;;;;5034078;28;20035;-76
2021/03/03 02:08:26;;;;;;;6.55;3.22;;;5.30;72.30;;;;;;5051850;28;20376;-75
2021/03/03 02:11:03;;;;;;;6.30;4.00;;;5.20;72.80;;;;;;5034591;28;20090;-75
2021/03/03 02:13:30;;;;;;;6.30;3.40;;;5.40;72.60;;;;;;5051949;28;20024;-74
2021/03/03 02:15:58;;;;;;;5.88;3.47;;;5.30;71.80;;;;;;5051710;28;20017;-75
2021/03/03 02:18:25;;;;;;;10.40;3.47;;;5.10;71.80;;;;;;5051766;28;20504;-75
2021/03/03 02:21:13;;;;;;;8.65;4.28;;;4.80;72.40;;;;;;5051667;28;20024;-74
2021/03/03 02:23:50;;;;;;;7.93;3.28;;;4.70;73.70;;;;;;5051812;28;20171;-75
2021/03/03 02:26:18;;;;;;;9.20;3.45;;;4.80;74.50;;;;;;5051584;28;20361;-75
2021/03/03 02:28:45;;;;;;;5.03;3.42;;;4.90;73.90;;;;;;5051596;28;20029;-74
2021/03/03 02:31:13;;;;;;;5.45;2.83;;;5.00;73.50;;;;;;5050512;28;20029;-75
2021/03/03 02:33:41;;;;;;;6.30;2.80;;;5.10;73.10;;;;;;5054959;28;20021;-75
2021/03/03 02:36:08;;;;;;;12.13;3.08;;;5.20;72.90;;;;;;5055733;28;20476;-75
2021/03/03 02:38:34;;;;;;;6.15;2.92;;;5.20;72.60;;;;;;5054447;28;20017;-75
2021/03/03 02:41:00;;;;;;;7.90;2.70;;;5.30;72.20;;;;;;5055535;28;20032;-74
2021/03/03 02:43:26;;;;;;;6.57;2.40;;;5.40;71.70;;;;;;5055670;28;20491;-74
2021/03/03 02:45:53;;;;;;;6.97;2.55;;;5.40;71.20;;;;;;5054317;28;20436;-75
2021/03/03 02:48:19;;;;;;;9.05;2.80;;;5.40;71.10;;;;;;5054305;28;20104;-75
2021/03/03 02:50:45;;;;;;;6.10;2.42;;;5.50;71.00;;;;;;5054445;28;20107;-75
2021/03/03 02:53:12;;;;;;;7.40;2.60;;;5.60;71.00;;;;;;5055493;28;20427;-74
2021/03/03 02:55:37;;;;;;;10.23;3.13;;;5.70;70.30;;;;;;5054208;28;20017;-75
2021/03/03 02:58:04;;;;;;;6.78;2.58;;;5.70;70.10;;;;;;5055278;28;20025;-75
2021/03/03 03:00:41;;;;;;;9.98;3.50;;;5.80;70.00;;;;;;5055557;28;20025;-74
2021/03/03 03:03:19;;;;;;;6.22;3.00;;;5.80;70.00;;;;;;5054235;28;20033;-75
2021/03/03 03:05:51;;;;;;;15.70;3.63;;;5.60;70.10;;;;;;5055345;28;20521;-75
2021/03/03 03:08:20;;;;;;;6.68;3.28;;;5.40;71.30;;;;;;5055277;28;20058;-75
2021/03/03 03:10:46;;;;;;;8.30;3.72;;;5.10;72.20;;;;;;5055288;28;20027;-75
2021/03/03 03:13:14;;;;;;;8.85;2.97;;;4.70;73.60;;;;;;5055107;28;20036;-75
2021/03/03 03:15:40;;;;;;;5.97;3.05;;;4.70;74.40;;;;;;5054040;28;20025;-75
2021/03/03 03:18:15;;;;;;;4.47;2.60;;;4.60;74.40;;;;;;5054999;28;20095;-75
2021/03/03 03:20:42;;;;;;;9.32;2.88;;;4.50;74.90;;;;;;5054902;28;20025;-75
2021/03/03 03:23:10;;;;;;;5.15;2.97;;;4.40;74.90;;;;;;5053843;28;20096;-75
2021/03/03 03:25:38;;;;;;;7.75;3.03;;;4.30;75.30;;;;;;5054932;28;20044;-75
2021/03/03 03:28:04;;;;;;;7.75;3.10;;;4.40;75.10;;;;;;5054899;28;20025;-75
2021/03/03 03:30:30;;;;;;;6.53;3.20;;;4.40;74.30;;;;;;5054993;28;20051;-75
2021/03/03 03:33:00;;;;;;;7.13;3.08;;;4.20;74.00;;;;;;5054766;28;20032;-75
2021/03/03 03:35:29;;;;;;;6.97;3.72;;;4.10;75.60;;;;;;5054831;28;20148;-75
2021/03/03 03:37:56;;;;;;;4.68;3.17;;;4.00;75.80;;;;;;5054624;28;20024;-75
2021/03/03 03:40:23;;;;;;;13.15;4.20;;;4.10;76.30;;;;;;5054788;28;20053;-75
2021/03/03 03:42:50;;;;;;;8.07;3.53;;;3.90;76.20;;;;;;5054525;28;20025;-75
2021/03/03 03:45:17;;;;;;;8.70;3.78;;;3.90;76.50;;;;;;5054635;28;20025;-75
2021/03/03 03:47:43;;;;;;;7.78;4.40;;;3.80;77.00;;;;;;5054349;28;20099;-75
2021/03/03 03:50:09;;;;;;;5.60;3.38;;;3.80;77.70;;;;;;5054480;28;20060;-75
2021/03/03 03:52:36;;;;;;;17.33;5.75;;;3.80;77.20;;;;;;5054362;28;20025;-75
2021/03/03 03:55:02;;;;;;;9.20;4.57;;;3.90;77.20;;;;;;5054489;28;20100;-75
2021/03/03 03:57:46;;;;;;;6.30;3.75;;;3.80;77.20;;;;;;5054132;28;20033;-75
2021/03/03 04:00:14;;;;;;;10.13;3.53;;;3.80;77.00;;;;;;5054693;28;20017;-75
2021/03/03 04:02:40;;;;;;;7.15;3.47;;;3.90;76.30;;;;;;5054294;28;20021;-75
2021/03/03 04:05:06;;;;;;;7.45;3.17;;;4.20;75.70;;;;;;5053039;28;20035;-75
2021/03/03 04:07:32;;;;;;;6.30;2.92;;;4.40;74.80;;;;;;5052716;28;20047;-75
2021/03/03 04:09:57;;;;;;;4.57;2.70;;;4.60;73.70;;;;;;5054157;28;20476;-75
2021/03/03 04:12:23;;;;;;;4.20;2.60;;;4.50;73.30;;;;;;5053989;28;20104;-75
2021/03/03 04:14:49;;;;;;;4.65;2.88;;;4.40;73.40;;;;;;5054083;28;20029;-75
2021/03/03 04:17:14;;;;;;;3.97;2.90;;;4.40;73.00;;;;;;5036062;28;20021;-75
2021/03/03 04:19:40;;;;;;;7.40;2.95;;;4.20;73.80;;;;;;5053923;28;20119;-75
2021/03/03 04:22:07;;;;;;;5.60;2.67;;;4.40;73.40;;;;;;5035879;28;20119;-75
2021/03/03 04:24:32;;;;;;;6.53;2.80;;;4.20;73.90;;;;;;5053766;28;20516;-75
2021/03/03 04:26:58;;;;;;;3.25;2.03;;;4.20;73.90;;;;;;5053788;28;20082;-75
2021/03/03 04:29:24;;;;;;;4.10;2.20;;;4.10;73.80;;;;;;5053773;28;20021;-76
2021/03/03 04:31:49;;;;;;;4.93;2.45;;;3.90;74.80;;;;;;5053774;28;20049;-75
2021/03/03 04:34:15;;;;;;;5.90;2.35;;;3.80;75.10;;;;;;5053741;28;20427;-75
2021/03/03 04:36:41;;;;;;;3.33;1.95;;;4.00;75.10;;;;;;5053500;28;20018;-75
2021/03/03 04:39:06;;;;;;;5.57;2.17;;;4.20;74.40;;;;;;5053453;28;20377;-75
2021/03/03 04:41:32;;;;;;;3.42;1.70;;;4.20;74.00;;;;;;5053601;28;20021;-75
2021/03/03 04:43:58;;;;;;;9.32;2.17;;;4.10;74.00;;;;;;5052231;28;20497;-75
2021/03/03 04:46:23;;;;;;;3.25;1.65;;;3.80;74.40;;;;;;5053467;28;20029;-75
2021/03/03 04:48:49;;;;;;;3.70;2.15;;;3.80;75.00;;;;;;5053292;28;20523;-75
2021/03/03 04:51:15;;;;;;;6.28;2.03;;;3.80;75.00;;;;;;5053268;28;20485;-75
2021/03/03 04:53:40;;;;;;;5.50;2.33;;;4.00;74.40;;;;;;5053199;28;20090;-75
2021/03/03 04:56:06;;;;;;;9.68;2.47;;;4.10;74.10;;;;;;5052641;28;20116;-75
2021/03/03 04:58:32;;;;;;;16.40;2.70;;;4.20;73.50;;;;;;5053127;28;20358;-75
2021/03/03 05:00:58;;;;;;;4.97;2.13;;;4.30;73.00;;;;;;5053236;28;20032;-75
2021/03/03 05:03:23;;;;;;;3.90;2.00;;;4.60;72.00;;;;;;5053146;28;20059;-75
2021/03/03 05:05:50;;;;;;;4.25;2.08;;;4.70;71.00;;;;;;5053015;28;20032;-75
2021/03/03 05:08:16;;;;;;;6.90;2.50;;;4.80;70.70;;;;;;5053201;28;20024;-76
2021/03/03 05:10:42;;;;;;;4.72;1.77;;;4.90;70.60;;;;;;5052969;28;20024;-75
2021/03/03 05:13:14;;;;;;;7.00;1.95;;;4.70;70.70;;;;;;5052952;28;20100;-75
2021/03/03 05:15:40;;;;;;;10.93;2.03;;;4.40;71.80;;;;;;5052850;28;20024;-75
2021/03/03 05:18:06;;;;;;;6.18;2.17;;;4.20;72.80;;;;;;5052790;28;20017;-75
2021/03/03 05:20:32;;;;;;;4.63;1.80;;;4.10;73.50;;;;;;5052720;28;20021;-75
2021/03/03 05:22:58;;;;;;;3.95;2.38;;;4.00;74.00;;;;;;5052724;28;20100;-75
2021/03/03 05:25:23;;;;;;;12.20;2.42;;;4.10;74.10;;;;;;5052498;28;20098;-75
2021/03/03 05:27:49;;;;;;;3.70;1.90;;;4.30;74.10;;;;;;5052588;28;20036;-75
2021/03/03 05:30:15;;;;;;;3.88;1.80;;;4.40;73.20;;;;;;5052514;28;20021;-75
2021/03/03 05:32:41;;;;;;;8.40;2.42;;;4.20;73.20;;;;;;5052429;28;20388;-75
2021/03/03 05:35:07;;;;;;;3.40;2.10;;;4.20;73.60;;;;;;5034854;28;20025;-75
2021/03/03 05:37:33;;;;;;;3.58;2.25;;;4.10;74.10;;;;;;5051532;28;20063;-75
2021/03/03 05:39:59;;;;;;;3.65;2.28;;;4.10;73.70;;;;;;5051068;28;20029;-75
2021/03/03 05:42:25;;;;;;;23.90;3.35;;;4.00;74.00;;;;;;5051148;28;20033;-75
2021/03/03 05:44:51;;;;;;;6.97;1.92;;;4.10;74.30;;;;;;5041848;28;20052;-75
2021/03/03 05:47:18;;;;;;;8.55;2.70;;;4.10;74.00;;;;;;5050844;28;20060;-75
2021/03/03 05:49:45;;;;;;;7.95;2.20;;;4.10;74.10;;;;;;5050809;28;20507;-75
2021/03/03 05:52:14;;;;;;;4.47;2.15;;;4.10;74.10;;;;;;5066606;22;20076;-73
2021/03/03 05:54:40;;;;;;;12.05;3.05;;;4.30;73.90;;;;;;5052000;28;20496;-75
2021/03/03 05:57:07;;;;;;;4.72;2.58;;;4.30;73.80;;;;;;5051114;28;20032;-74
2021/03/03 05:59:33;;;;;;;5.53;2.45;;;4.30;74.00;;;;;;5034321;28;20025;-75
2021/03/03 06:01:59;;;;;;;9.02;3.25;;;4.30;74.10;;;;;;5052213;28;20028;-74
2021/03/03 06:04:25;;;;;;;11.90;2.33;;;4.20;74.50;;;;;;5050884;28;20104;-74
2021/03/03 06:06:50;;;;;;;10.70;2.55;;;4.40;74.20;;;;;;5051148;28;20441;-75
2021/03/03 06:09:16;;;;;;;4.57;2.38;;;4.40;74.00;;;;;;5052146;28;20396;-75
2021/03/03 06:11:42;;;;;;;10.80;2.13;;;4.30;74.30;;;;;;5051017;28;20036;-75
2021/03/03 06:14:08;;;;;;;9.88;2.78;;;4.30;74.60;;;;;;5051916;28;20024;-74
2021/03/03 06:16:34;;;;;;;11.75;3.22;;;4.30;74.20;;;;;;5052289;28;20048;-74
2021/03/03 06:19:00;;;;;;;5.10;2.45;;;4.30;74.90;;;;;;5050340;28;20021;-74
2021/03/03 06:21:28;;;;;;;3.35;2.30;;;4.30;75.00;;;;;;5052338;28;20025;-74
2021/03/03 06:24:06;;;;;;;4.65;2.60;;;4.20;75.70;;;;;;5050254;28;20059;-74
2021/03/03 06:26:33;;;;;;;7.50;2.80;;;4.20;76.30;;;;;;5051156;28;20385;-74
2021/03/03 06:28:59;;;;;;;5.65;2.13;;;4.30;76.20;;;;;;5053790;28;20044;-75
2021/03/03 06:31:33;;;;;;;9.05;2.17;;;4.40;75.80;;;;;;5052940;28;20380;-75
2021/03/03 06:34:14;;;;;;;5.07;2.00;;;4.60;74.80;;;;;;5057079;28;20025;-75
2021/03/03 06:36:46;;;;;;;4.40;2.50;;;4.70;73.60;;;;;;5058788;28;20104;-74
2021/03/03 06:39:26;;;;;;;6.05;2.53;;;4.90;72.00;;;;;;5057019;28;20025;-75
2021/03/03 06:42:05;;;;;;;4.53;2.70;;;5.00;71.20;;;;;;5060123;28;20025;-75
2021/03/03 06:44:51;;;;;;;9.20;2.97;;;5.10;70.40;;;;;;5055271;28;20480;-74
2021/03/03 06:47:18;;;;;;;3.85;2.33;;;5.30;70.40;;;;;;5056163;28;20068;-74
2021/03/03 06:49:43;;;;;;;8.40;1.90;;;5.50;69.10;;;;;;5059596;28;20054;-75
2021/03/03 06:52:09;;;;;;;5.13;1.92;;;5.60;68.90;;;;;;5064545;28;20111;-74
2021/03/03 06:54:35;;;;;;;6.93;2.83;;;5.70;69.80;;;;;;5063934;28;20036;-74
2021/03/03 06:57:07;;;;;;;4.05;2.60;;;5.70;68.80;;;;;;5057661;28;20031;-77
2021/03/03 06:59:33;;;;;;;7.43;2.67;;;5.60;68.40;;;;;;5060624;28;20460;-74
2021/03/03 07:02:12;;;;;;;8.55;1.95;;;5.70;68.60;;;;;;5054964;28;20037;-74
2021/03/03 07:04:45;;;;;;;6.20;1.95;;;5.70;68.80;;;;;;5066036;28;20043;-74
2021/03/03 07:07:11;;;;;;;4.55;2.08;;;5.90;68.50;;;;;;5061195;28;20021;-73
2021/03/03 07:10:00;;;;;;;5.13;2.35;;;6.00;67.90;;;;;;5060426;28;20021;-74
2021/03/03 07:12:29;;;;;;;5.78;2.05;;;6.10;67.50;;;;;;5062263;28;20469;-75
2021/03/03 07:15:07;;;;;;;6.18;2.22;;;6.00;67.40;;;;;;5060842;28;20028;-75
2021/03/03 07:17:37;;;;;;;6.93;2.10;;;5.90;67.70;;;;;;5051622;28;20387;-75
2021/03/03 07:20:16;;;;;;;13.57;2.10;;;5.80;67.10;;;;;;5062688;28;20020;-73
2021/03/03 07:22:47;;;;;;;15.88;2.38;;;5.80;67.30;;;;;;5068930;28;20032;-74
2021/03/03 07:25:15;;;;;;;7.05;2.42;;;5.90;67.50;;;;;;5069068;28;20025;-75
2021/03/03 07:27:43;;;;;;;5.93;2.25;;;6.00;67.10;;;;;;5073498;28;20503;-75
2021/03/03 07:30:12;;;;;;;5.80;1.77;;;6.20;66.80;;;;;;5061316;28;20542;-75
2021/03/03 07:32:39;;;;;;;9.38;2.33;;;6.40;66.90;;;;;;5062012;28;20028;-74
2021/03/03 07:35:07;;;;;;;7.93;2.03;;;6.50;66.60;;;;;;5060489;28;20021;-75
2021/03/03 07:37:36;;;;;;;20.55;3.22;;;6.60;66.00;;;;;;5063766;28;20063;-73
2021/03/03 07:40:07;;;;;;;16.42;2.33;;;6.60;66.90;;;;;;5062780;28;20499;-74
2021/03/03 07:42:34;;;;;;;15.60;2.72;;;6.70;66.60;;;;;;5060807;28;20028;-75
2021/03/03 07:45:02;;;;;;;7.88;2.83;;;6.70;65.80;;;;;;5056056;28;20021;-75
2021/03/03 07:47:30;;;;;;;9.27;2.70;;;6.70;65.40;;;;;;5061566;28;20043;-74
2021/03/03 07:50:07;;;;;;;7.97;1.98;;;6.70;65.20;;;;;;5062554;28;20094;-75
2021/03/03 07:52:36;;;;;;;13.25;2.90;;;6.70;65.80;;;;;;5061860;28;20029;-75
2021/03/03 07:55:04;;;;;;;10.48;2.40;;;6.70;64.60;;;;;;5068099;28;20492;-75
2021/03/03 07:57:32;;;;;;;7.03;2.55;;;6.90;64.40;;;;;;5066750;28;20077;-75
2021/03/03 07:59:58;;;;;;;4.60;2.53;;;7.00;64.40;;;;;;5058878;28;20029;-74
2021/03/03 08:02:49;;;;;;;6.88;2.47;;;7.20;65.30;;;;;;5062487;28;20021;-74
2021/03/03 08:05:39;;;;;;;6.35;2.40;;;7.40;67.00;;;;;;5068536;28;20021;-73
2021/03/03 08:08:25;;;;;;;4.55;2.13;;;7.60;65.80;;;;;;5062323;28;20025;-74
2021/03/03 08:11:12;;;;;;;15.90;3.33;;;7.70;64.60;;;;;;5067114;28;20033;-74
2021/03/03 08:13:39;;;;;;;13.07;2.63;;;7.70;68.20;;;;;;5009992;28;20037;-74
2021/03/03 08:16:06;;;;;;;9.85;2.80;;;7.70;69.40;;;;;;5057408;28;20025;-75
2021/03/03 08:18:37;;;;;;;26.33;3.45;;;7.80;71.30;;;;;;5061339;28;20035;-76
2021/03/03 08:21:06;;;;;;;13.48;2.30;;;7.90;70.80;;;;;;5059266;28;20025;-74
2021/03/03 08:23:35;;;;;;;11.20;2.38;;;8.00;70.60;;;;;;5057255;28;20021;-74
2021/03/03 08:26:05;;;;;;;8.57;3.20;;;8.00;70.10;;;;;;5066278;28;20020;-75
2021/03/03 08:28:41;;;;;;;11.75;2.08;;;8.00;70.50;;;;;;5063833;28;20392;-75
2021/03/03 08:31:07;;;;;;;8.95;1.95;;;8.10;69.30;;;;;;5065794;28;20388;-75
2021/03/03 08:33:34;;;;;;;8.25;1.95;;;8.30;66.40;;;;;;5069029;28;20016;-75
2021/03/03 08:36:01;;;;;;;12.05;2.97;;;8.30;65.00;;;;;;5056259;28;20021;-74
2021/03/03 08:38:26;;;;;;;6.78;2.47;;;8.30;63.90;;;;;;5059448;28;20017;-73
2021/03/03 08:40:52;;;;;;;9.75;2.15;;;8.40;64.20;;;;;;5061462;28;20035;-73
2021/03/03 08:43:37;;;;;;;6.78;2.05;;;8.50;63.50;;;;;;5064276;28;20110;-72
2021/03/03 08:46:23;;;;;;;4.00;1.92;;;8.60;62.60;;;;;;5062251;28;20027;-72
2021/03/03 08:48:58;;;;;;;7.75;2.60;;;8.70;61.50;;;;;;5045677;28;20515;-73
2021/03/03 08:51:28;;;;;;;14.13;2.65;;;8.70;61.00;;;;;;5056861;28;20096;-73
2021/03/03 08:53:56;;;;;;;12.40;2.67;;;8.90;61.20;;;;;;5061370;28;20074;-73
2021/03/03 08:56:39;;;;;;;14.20;2.47;;;9.00;60.60;;;;;;5066001;28;20062;-73
2021/03/03 08:59:27;;;;;;;26.90;2.78;;;9.20;60.20;;;;;;5059274;28;20079;-72
2021/03/03 09:02:09;;;;;;;42.30;5.07;;;9.30;59.50;;;;;;5045924;28;20021;-73
2021/03/03 09:04:50;;;;;;;24.80;2.85;;;9.40;59.90;;;;;;5054692;28;20391;-72
2021/03/03 09:07:20;;;;;;;24.27;4.10;;;9.40;59.80;;;;;;5061285;28;20031;-73
2021/03/03 09:10:07;;;;;;;16.73;2.97;;;9.40;59.40;;;;;;5043868;28;20480;-73
2021/03/03 09:12:38;;;;;;;24.08;3.63;;;9.50;58.90;;;;;;5066649;28;20024;-73
2021/03/03 09:15:07;;;;;;;7.05;2.10;;;9.60;58.80;;;;;;5061433;28;20021;-73
2021/03/03 09:17:34;;;;;;;6.90;2.30;;;9.70;57.50;;;;;;5065978;28;20049;-73
2021/03/03 09:20:09;;;;;;;12.23;2.50;;;9.70;58.00;;;;;;5062086;28;20021;-73
2021/03/03 09:22:37;;;;;;;13.93;3.17;;;9.90;58.30;;;;;;5066053;28;20025;-73
2021/03/03 09:25:17;;;;;;;10.40;2.20;;;10.10;57.90;;;;;;5055754;28;20154;-73
2021/03/03 09:27:57;;;;;;;12.77;2.45;;;10.20;57.40;;;;;;5066188;28;20028;-73
2021/03/03 09:30:26;;;;;;;5.65;1.65;;;10.30;57.50;;;;;;5061109;28;20528;-73
2021/03/03 09:32:53;;;;;;;11.68;2.85;;;10.50;58.20;;;;;;5052689;28;20025;-72
2021/03/03 09:35:30;;;;;;;8.32;2.08;;;10.60;58.20;;;;;;5060546;28;20025;-74
2021/03/03 09:37:56;;;;;;;4.78;2.05;;;10.40;54.90;;;;;;5062775;28;20033;-72
2021/03/03 09:40:28;;;;;;;13.32;2.50;;;10.50;54.50;;;;;;5052399;28;20025;-73
2021/03/03 09:42:53;;;;;;;22.95;2.58;;;10.50;52.90;;;;;;5061713;28;20052;-73
2021/03/03 09:45:22;;;;;;;18.48;2.55;;;10.70;52.30;;;;;;5055391;28;20079;-73
2021/03/03 09:47:48;;;;;;;7.15;2.75;;;10.90;51.60;;;;;;5057102;28;20068;-74
2021/03/03 09:50:17;;;;;;;8.32;1.67;;;11.20;50.70;;;;;;5061216;28;20033;-73
2021/03/03 09:52:45;;;;;;;12.38;2.00;;;11.30;50.10;;;;;;5055701;28;20571;-73
2021/03/03 09:55:14;;;;;;;6.22;1.70;;;11.30;50.50;;;;;;5060377;28;20067;-74
2021/03/03 09:57:41;;;;;;;9.30;2.03;;;11.60;50.50;;;;;;5060761;28;20090;-74
2021/03/03 10:00:12;;;;;;;13.57;3.03;;;11.70;50.80;;;;;;5043701;28;20042;-74
2021/03/03 10:02:44;;;;;;;23.05;2.92;;;11.80;49.50;;;;;;5056451;28;20017;-74
2021/03/03 10:05:18;;;;;;;10.98;2.42;;;11.90;49.80;;;;;;5056504;28;20081;-74
2021/03/03 10:07:49;;;;;;;23.65;4.18;;;11.90;49.80;;;;;;5061472;28;20612;-74
2021/03/03 10:10:20;;;;;;;14.45;2.30;;;12.00;50.50;;;;;;5066246;28;20016;-74
2021/03/03 10:12:46;;;;;;;7.13;2.47;;;11.90;51.40;;;;;;5069529;28;20035;-73
2021/03/03 10:15:19;;;;;;;10.40;1.85;;;11.90;52.60;;;;;;5056528;28;20264;-73
2021/03/03 10:17:54;;;;;;;29.08;3.90;;;11.90;53.90;;;;;;5062761;28;20192;-73
2021/03/03 10:20:36;;;;;;;21.20;2.67;;;11.90;53.60;;;;;;5056257;28;20027;-73
2021/03/03 10:23:13;;;;;;;10.27;2.28;;;11.90;52.80;;;;;;5070982;28;20020;-73
2021/03/03 10:25:45;;;;;;;4.78;2.00;;;11.90;51.90;;;;;;5063815;28;20059;-74
2021/03/03 10:28:12;;;;;;;15.65;2.80;;;11.90;51.90;;;;;;5067859;28;20379;-74
2021/03/03 10:30:40;;;;;;;14.88;2.63;;;12.10;51.90;;;;;;5061005;28;20107;-73
2021/03/03 10:33:07;;;;;;;19.90;5.82;;;12.50;51.50;;;;;;5060367;28;20027;-74
2021/03/03 10:35:48;;;;;;;7.13;2.63;;;12.80;51.00;;;;;;5051805;28;20057;-74
2021/03/03 10:38:16;;;;;;;5.88;2.47;;;12.90;50.20;;;;;;5056250;28;20480;-74
2021/03/03 10:40:43;;;;;;;13.48;3.95;;;13.20;49.90;;;;;;5058740;28;20025;-74
2021/03/03 10:43:11;;;;;;;10.10;2.22;;;13.40;48.90;;;;;;5051537;28;20021;-73
2021/03/03 10:45:37;;;;;;;13.13;2.63;;;13.60;48.90;;;;;;5060442;28;20431;-73
2021/03/03 10:48:03;;;;;;;15.35;2.95;;;13.70;49.40;;;;;;5055370;28;20035;-73
2021/03/03 10:50:31;;;;;;;4.95;2.55;;;13.90;50.30;;;;;;5064240;28;20028;-74
2021/03/03 10:52:59;;;;;;;12.77;2.53;;;14.00;50.60;;;;;;5043100;28;20033;-74
2021/03/03 10:55:31;;;;;;;13.85;2.30;;;14.10;50.70;;;;;;5054658;28;20423;-74
2021/03/03 10:58:07;;;;;;;;;;;14.40;50.40;;;;;;5056882;28;20021;-74
2021/03/03 11:00:52;;;;;;;5.18;1.70;;;14.50;49.80;;;;;;5064877;28;19905;-74
2021/03/03 11:03:19;;;;;;;8.52;2.35;;;14.50;46.50;;;;;;5049444;28;20484;-74
2021/03/03 11:05:49;;;;;;;4.70;2.50;;;14.50;44.80;;;;;;5068743;28;20032;-73
2021/03/03 11:08:15;;;;;;;2.17;1.40;;;14.40;45.10;;;;;;5068995;28;20384;-74
2021/03/03 11:10:41;;;;;;;8.65;1.90;;;14.40;44.10;;;;;;5062155;28;20039;-74
2021/03/03 11:13:07;;;;;;;9.77;2.15;;;14.40;43.80;;;;;;5060034;28;20025;-74
2021/03/03 11:15:32;;;;;;;9.82;2.08;;;14.60;43.90;;;;;;5064452;28;20058;-74
2021/03/03 11:17:58;;;;;;;2.80;1.48;;;14.70;42.00;;;;;;5069166;28;20070;-74
2021/03/03 11:20:24;;;;;;;4.03;1.70;;;14.70;41.00;;;;;;5060083;28;20506;-74
2021/03/03 11:22:49;;;;;;;3.70;1.50;;;14.70;41.70;;;;;;5064596;28;20039;-74
2021/03/03 11:25:15;;;;;;;5.75;1.88;;;14.70;41.70;;;;;;5063854;28;20027;-73
2021/03/03 11:27:41;;;;;;;6.88;2.42;;;14.70;41.80;;;;;;5058995;28;20423;-74
2021/03/03 11:30:07;;;;;;;5.43;2.58;;;14.70;42.70;;;;;;5069958;28;20033;-74
2021/03/03 11:32:33;;;;;;;3.33;1.85;;;14.80;42.90;;;;;;5047357;28;20033;-74
2021/03/03 11:34:59;;;;;;;10.82;2.70;;;14.80;42.50;;;;;;5041419;28;20047;-74
2021/03/03 11:37:24;;;;;;;2.67;1.55;;;14.80;42.80;;;;;;5061525;28;20036;-74
2021/03/03 11:39:53;;;;;;;4.70;1.90;;;14.60;41.70;;;;;;5063300;28;20036;-74
2021/03/03 11:42:19;;;;;;;9.02;1.88;;;14.40;42.40;;;;;;5063841;28;20100;-74
2021/03/03 11:44:45;;;;;;;20.85;2.72;;;14.50;44.30;;;;;;5065002;28;20029;-74
2021/03/03 11:47:11;;;;;;;6.28;2.15;;;14.70;43.10;;;;;;5067743;28;20371;-74
2021/03/03 11:49:37;;;;;;;4.00;1.90;;;14.80;42.80;;;;;;5059080;28;20070;-74
2021/03/03 11:52:03;;;;;;;6.10;2.08;;;15.00;41.60;;;;;;5068033;28;20036;-74
2021/03/03 11:54:28;;;;;;;13.43;2.20;;;15.30;41.00;;;;;;5063887;28;20511;-73
2021/03/03 11:56:54;;;;;;;11.18;1.98;;;15.40;40.70;;;;;;5068832;28;20024;-74
2021/03/03 11:59:20;;;;;;;9.25;2.17;;;15.40;41.50;;;;;;5057868;28;20231;-74
2021/03/03 12:01:48;;;;;;;9.38;2.40;;;15.40;40.40;;;;;;5056319;28;20025;-74
2021/03/03 12:04:13;;;;;;;9.63;2.20;;;15.40;40.00;;;;;;5063200;28;20488;-74
2021/03/03 12:06:39;;;;;;;2.70;1.90;;;15.50;39.60;;;;;;5070455;28;20032;-74
2021/03/03 12:09:05;;;;;;;14.38;3.10;;;15.40;38.60;;;;;;5062933;28;20035;-74
2021/03/03 12:11:31;;;;;;;6.32;2.80;;;15.30;38.90;;;;;;5064570;28;20017;-72
2021/03/03 12:13:56;;;;;;;15.07;2.90;;;15.00;39.60;;;;;;5056908;28;20388;-73
2021/03/03 12:16:22;;;;;;;4.47;2.15;;;15.10;38.70;;;;;;5070100;28;20044;-74
2021/03/03 12:18:48;;;;;;;8.23;2.20;;;14.90;37.10;;;;;;5064458;28;20025;-74
2021/03/03 12:21:14;;;;;;;6.93;2.28;;;14.90;37.50;;;;;;5058360;28;20029;-73
2021/03/03 12:23:39;;;;;;;6.13;2.65;;;14.90;37.00;;;;;;5063587;28;20025;-74
2021/03/03 12:26:05;;;;;;;8.60;2.53;;;15.00;37.40;;;;;;5040361;28;20025;-73
2021/03/03 12:28:31;;;;;;;4.78;2.42;;;15.00;38.30;;;;;;5056902;28;20184;-73
2021/03/03 12:30:57;;;;;;;7.15;2.90;;;14.90;38.00;;;;;;5045639;28;20111;-74
2021/03/03 12:33:23;;;;;;;3.17;2.13;;;14.80;39.00;;;;;;5067055;28;20028;-74
2021/03/03 12:35:48;;;;;;;7.35;2.72;;;14.70;39.70;;;;;;5057381;28;20024;-73
2021/03/03 12:38:14;;;;;;;5.07;2.40;;;14.40;40.30;;;;;;5047725;28;20033;-74
2021/03/03 12:40:41;;;;;;;14.40;4.32;;;14.60;41.20;;;;;;5054957;28;20497;-74
2021/03/03 12:43:07;;;;;;;5.25;3.03;;;14.70;41.10;;;;;;5069517;28;20382;-74
2021/03/03 12:45:33;;;;;;;5.93;3.28;;;14.70;38.50;;;;;;5047419;28;20082;-74
2021/03/03 12:47:59;;;;;;;6.80;2.60;;;14.70;37.70;;;;;;5052872;28;20021;-74
2021/03/03 12:50:24;;;;;;;5.35;2.25;;;14.60;39.10;;;;;;5064703;28;20476;-73
2021/03/03 12:52:50;;;;;;;8.38;2.53;;;14.60;40.20;;;;;;5063487;28;20028;-73
2021/03/03 12:55:17;;;;;;;13.35;3.67;;;14.60;39.20;;;;;;5055287;28;20338;-73
2021/03/03 12:57:43;;;;;;;6.82;2.67;;;14.70;39.50;;;;;;5051314;28;20493;-74